Huvudsida
METAR-TAF:

METAR-TAF

Flygplatser :

Sulphur Springs Municipal Airport

Sulphur Springs, Texas, USA

latitud: 33-09-40N, longitud: 095-37-16W, höjd: 149 m

Aktuellt väderrapport

Denna rapport gjordes för 21 minuter sedan, klockan 09:35 UTC
Vind 8 kt från syd
Temperatur 24°C
Fuktighet 83%
Tryck 1015 hPa
Sikt: 16.1 km
Klar himmel

METAR: KSLR 270935Z AUTO 19008KT 10SM CLR 24/21 A2996 RMK AO2 T02400209

Tid: 04:56 (09:56 UTC)


TAF: saknas

Aktuella väderrapporter och prognoser från 4000 flygplatser (METAR- och TAF-rapporter).

De tillgängliga stationerna syns som gula och röda prickar på kartan.

För musen över prickarna för att se namnen på stationerna.

Klicka sedan för att få väderrapporter och prognoser.

För att ändra kartan: Klicka på de gröna knapparna med ett svart kors på för att zooma in; den gröna knappen med ett streck på för att zooma ut; eller på de gröna pilarna för angränsande kartor.


METAR-TAF: